Fort Mitchell, Alabama
Current Conditions -  °F | °C
As of 1:58 AM on Tuesday 21 Oct 2014 (Local Time) from KLSF Reporting Station
Moderate Fog Moderate Fog  
Wind Chill: 50°   Ceiling: Unl
Heat Index: 50°   Visibility: 0.5mi
Dew Point: 50°   Wind: 0mph
Humidity: 100%   Direction: NA
Pressure: 30"   Gusts: NA
Location:  32.34°N, 85.02°W
Report Text: KLSF 210658Z AUTO 00000KT 1/2SM R33/1400FT FG CLR 10/10 A3000 RMK AO2 SLP161
Loading
Personal Weather Stations






























Interactive Weather Map
Tropical Storm Tracking
New forecast layout! Learn more

10-Day Weather Forecast

Advertisements
Track Severe Weather on mobile